Time;durP1;ratioP1;P1;durP2;ratioP2;P2;SDS_P1;SDS_P2;PMS_P1;PMS_P2;Temp;Humidity;BMP_temperature;BMP_pressure;BME280_temperature;BME280_humidity;BME280_pressure;Samples;Min_cycle;Max_cycle;Signal;HPM_P1;HPM_P2
2022/08/03 00:01:10;;;;;;;23.67;22.37;;;;;;;;;;5034745;28;20456;-83
2022/08/03 00:03:39;;;;;;;23.90;22.23;;;;;;;;;;5034799;28;20421;-83
2022/08/03 00:06:06;;;;;;;23.50;22.20;;;;;;;;;;5035101;28;20512;-83
2022/08/03 00:08:33;;;;;;;25.20;23.70;;;;;;;;;;5034752;28;20432;-84
2022/08/03 00:11:01;;;;;;;24.63;22.80;;;;;;;;;;5035012;28;20445;-83
2022/08/03 00:13:28;;;;;;;23.97;22.57;;;;;;;;;;5033580;28;20525;-84
2022/08/03 00:15:56;;;;;;;23.33;22.03;;;;;;;;;;5033163;28;20509;-83
2022/08/03 00:18:23;;;;;;;23.57;22.27;;;;;;;;;;5034730;28;20514;-83
2022/08/03 00:20:52;;;;;;;22.90;21.70;;;;;;;;;;5033093;28;20997;-82
2022/08/03 00:23:20;;;;;;;23.33;22.03;;;;;;;;;;5034722;28;20447;-83
2022/08/03 00:25:47;;;;;;;23.70;22.20;;;;;;;;;;5034200;28;20538;-83
2022/08/03 00:28:14;;;;;;;25.03;23.23;;;;;;;;;;5034290;28;20439;-83
2022/08/03 00:30:42;;;;;;;24.63;23.23;;;;;;;;;;5034661;28;20445;-84
2022/08/03 00:33:09;;;;;;;24.53;23.13;;;;;;;;;;5034260;28;20414;-84
2022/08/03 00:35:37;;;;;;;25.67;23.83;;;;;;;;;;5034186;28;20432;-83
2022/08/03 00:38:06;;;;;;;23.60;22.30;;;;;;;;;;5034019;28;20889;-83
2022/08/03 00:40:33;;;;;;;24.63;22.80;;;;;;;;;;5034424;28;20432;-84
2022/08/03 00:43:01;;;;;;;23.43;22.03;;;;;;;;;;5034230;28;20429;-83
2022/08/03 00:45:29;;;;;;;24.03;22.63;;;;;;;;;;5034148;28;20420;-84
2022/08/03 00:47:57;;;;;;;25.27;23.70;;;;;;;;;;5033965;28;20499;-83
2022/08/03 00:50:26;;;;;;;25.27;23.67;;;;;;;;;;5034210;28;20450;-83
2022/08/03 00:52:55;;;;;;;24.00;22.60;;;;;;;;;;5034000;28;20437;-83
2022/08/03 00:55:24;;;;;;;23.90;22.60;;;;;;;;;;5033452;28;20456;-83
2022/08/03 00:57:51;;;;;;;24.10;22.80;;;;;;;;;;5033794;28;20737;-83
2022/08/03 01:00:20;;;;;;;23.27;22.07;;;;;;;;;;5033681;28;20435;-84
2022/08/03 01:02:47;;;;;;;24.33;22.93;;;;;;;;;;5032827;28;20458;-83
2022/08/03 01:05:15;;;;;;;23.60;22.30;;;;;;;;;;5033647;28;20432;-83
2022/08/03 01:07:47;;;;;;;24.90;23.50;;;;;;;;;;5033849;28;20428;-83
2022/08/03 01:10:18;;;;;;;24.57;23.17;;;;;;;;;;5033544;28;20410;-83
2022/08/03 01:12:53;;;;;;;23.73;22.33;;;;;;;;;;5033608;28;20440;-84
2022/08/03 01:15:26;;;;;;;24.67;23.37;;;;;;;;;;5033618;28;20878;-83
2022/08/03 01:17:56;;;;;;;24.00;22.70;;;;;;;;;;5032059;28;20420;-83
2022/08/03 01:20:25;;;;;;;24.13;22.83;;;;;;;;;;5032126;28;20527;-83
2022/08/03 01:23:04;;;;;;;24.93;23.43;;;;;;;;;;5033577;28;20413;-84
2022/08/03 01:25:37;;;;;;;24.40;23.00;;;;;;;;;;5033211;28;20413;-82
2022/08/03 01:28:12;;;;;;;24.90;23.13;;;;;;;;;;5033682;28;20425;-83
2022/08/03 01:30:43;;;;;;;24.17;22.67;;;;;;;;;;5033204;28;20437;-83
2022/08/03 01:33:14;;;;;;;23.17;21.87;;;;;;;;;;5033025;28;20421;-84
2022/08/03 01:35:43;;;;;;;23.30;22.00;;;;;;;;;;5031776;28;20952;-83
2022/08/03 01:38:12;;;;;;;24.60;23.20;;;;;;;;;;5033236;28;20457;-82
2022/08/03 01:40:41;;;;;;;24.17;22.80;;;;;;;;;;5031809;28;20456;-84
2022/08/03 01:43:09;;;;;;;23.27;21.97;;;;;;;;;;5033120;28;20425;-83
2022/08/03 01:45:37;;;;;;;24.73;23.20;;;;;;;;;;5032813;28;20438;-84
2022/08/03 01:48:07;;;;;;;23.23;21.83;;;;;;;;;;5033421;28;20427;-84
2022/08/03 01:50:35;;;;;;;23.30;21.80;;;;;;;;;;5031741;28;20420;-83
2022/08/03 01:53:03;;;;;;;24.83;23.27;;;;;;;;;;5033237;28;20797;-84
2022/08/03 01:55:32;;;;;;;25.10;23.27;;;;;;;;;;5032947;28;20476;-83
2022/08/03 01:58:00;;;;;;;23.80;22.50;;;;;;;;;;5032707;28;20934;-83
2022/08/03 02:00:28;;;;;;;23.67;22.20;;;;;;;;;;5032898;28;20455;-84
2022/08/03 02:02:55;;;;;;;23.00;21.70;;;;;;;;;;5033185;28;20429;-84
2022/08/03 02:05:25;;;;;;;23.43;21.80;;;;;;;;;;5033059;28;20461;-83
2022/08/03 02:07:53;;;;;;;22.47;21.17;;;;;;;;;;5032838;28;20435;-83
2022/08/03 02:10:21;;;;;;;24.83;22.87;;;;;;;;;;5032801;28;20412;-83
2022/08/03 02:12:50;;;;;;;23.20;21.70;;;;;;;;;;5032780;28;20883;-83
2022/08/03 02:15:18;;;;;;;23.60;22.20;;;;;;;;;;5033122;28;20797;-84
2022/08/03 02:17:47;;;;;;;23.27;21.90;;;;;;;;;;5032910;28;20420;-84
2022/08/03 02:20:16;;;;;;;22.83;21.53;;;;;;;;;;5032639;28;20488;-84
2022/08/03 02:22:45;;;;;;;24.53;23.13;;;;;;;;;;5032869;28;20416;-84
2022/08/03 02:25:13;;;;;;;23.60;22.27;;;;;;;;;;5032516;28;20411;-83
2022/08/03 02:27:43;;;;;;;24.00;22.57;;;;;;;;;;5032540;28;20448;-83
2022/08/03 02:30:12;;;;;;;23.60;22.30;;;;;;;;;;5032669;28;20433;-84
2022/08/03 02:32:41;;;;;;;24.07;22.67;;;;;;;;;;5032901;28;20438;-83
2022/08/03 02:35:11;;;;;;;24.00;22.70;;;;;;;;;;5032906;28;20434;-83
2022/08/03 02:37:47;;;;;;;23.23;21.77;;;;;;;;;;5032408;28;20447;-84
2022/08/03 02:40:17;;;;;;;23.00;21.80;;;;;;;;;;5033060;28;20456;-84
2022/08/03 02:42:46;;;;;;;23.53;22.13;;;;;;;;;;5032594;28;21000;-84
2022/08/03 02:45:15;;;;;;;23.70;22.40;;;;;;;;;;5036594;28;20409;-83
2022/08/03 02:47:44;;;;;;;25.53;24.00;;;;;;;;;;5036129;28;20915;-83
2022/08/03 02:50:12;;;;;;;23.83;22.53;;;;;;;;;;5036458;28;20445;-83
2022/08/03 02:52:40;;;;;;;24.27;22.83;;;;;;;;;;5036149;28;20434;-83
2022/08/03 02:55:10;;;;;;;23.63;22.13;;;;;;;;;;5035711;28;20500;-83
2022/08/03 02:57:40;;;;;;;24.13;22.73;;;;;;;;;;5036308;28;20419;-84
2022/08/03 03:00:08;;;;;;;23.40;22.00;;;;;;;;;;5036102;28;20484;-82
2022/08/03 03:02:37;;;;;;;22.50;21.30;;;;;;;;;;5035919;28;20447;-83
2022/08/03 03:05:05;;;;;;;23.40;22.10;;;;;;;;;;5034756;28;20435;-83
2022/08/03 03:07:33;;;;;;;23.23;21.83;;;;;;;;;;5036223;28;20443;-84
2022/08/03 03:10:01;;;;;;;23.83;22.53;;;;;;;;;;5035874;28;20900;-83
2022/08/03 03:12:28;;;;;;;23.63;22.13;;;;;;;;;;5035895;28;20408;-83
2022/08/03 03:14:57;;;;;;;23.60;22.40;;;;;;;;;;5035798;28;20939;-83
2022/08/03 03:17:25;;;;;;;23.10;21.80;;;;;;;;;;5035701;28;20444;-82
2022/08/03 03:19:52;;;;;;;23.17;21.97;;;;;;;;;;5034237;28;20964;-83
2022/08/03 03:22:20;;;;;;;23.17;21.90;;;;;;;;;;5035541;28;20937;-84
2022/08/03 03:24:50;;;;;;;22.77;21.50;;;;;;;;;;5035669;28;20411;-83
2022/08/03 03:27:18;;;;;;;23.50;22.20;;;;;;;;;;5035455;28;20510;-83
2022/08/03 03:29:46;;;;;;;23.30;22.03;;;;;;;;;;5035826;28;20448;-83
2022/08/03 03:32:15;;;;;;;22.90;21.70;;;;;;;;;;5035539;28;20445;-84
2022/08/03 03:34:43;;;;;;;25.27;23.70;;;;;;;;;;5035463;28;20427;-84
2022/08/03 03:37:10;;;;;;;22.80;21.40;;;;;;;;;;5035433;28;20468;-84
2022/08/03 03:39:38;;;;;;;23.60;22.10;;;;;;;;;;5035534;28;20454;-83
2022/08/03 03:42:05;;;;;;;22.53;21.23;;;;;;;;;;5035299;28;20415;-83
2022/08/03 03:44:33;;;;;;;22.20;20.97;;;;;;;;;;5035247;28;20434;-84
2022/08/03 03:47:00;;;;;;;23.87;22.50;;;;;;;;;;5035151;28;20445;-84
2022/08/03 03:49:29;;;;;;;23.37;21.90;;;;;;;;;;5035157;28;20441;-84
2022/08/03 03:51:56;;;;;;;23.57;22.07;;;;;;;;;;5035430;28;20430;-83
2022/08/03 03:54:24;;;;;;;22.90;21.40;;;;;;;;;;5034635;28;20445;-83
2022/08/03 03:56:51;;;;;;;23.23;21.73;;;;;;;;;;5034763;28;20472;-84
2022/08/03 03:59:18;;;;;;;23.63;22.37;;;;;;;;;;5034942;28;20545;-83
2022/08/03 04:01:46;;;;;;;23.00;21.70;;;;;;;;;;5035196;28;20802;-82
2022/08/03 04:12:31;;;;;;;23.63;22.23;;;;;;;;;;5035049;28;20391;-84
2022/08/03 04:15:00;;;;;;;22.80;21.50;;;;;;;;;;5034877;28;20978;-84
2022/08/03 04:17:28;;;;;;;23.80;22.50;;;;;;;;;;5034946;28;20440;-83
2022/08/03 04:19:56;;;;;;;22.03;20.73;;;;;;;;;;5034676;28;20491;-82
2022/08/03 04:22:26;;;;;;;23.30;22.00;;;;;;;;;;5034911;28;20413;-84
2022/08/03 04:24:56;;;;;;;21.93;20.73;;;;;;;;;;5034903;28;20437;-84
2022/08/03 04:27:25;;;;;;;23.27;22.07;;;;;;;;;;5034458;28;20485;-84
2022/08/03 04:29:53;;;;;;;22.80;21.43;;;;;;;;;;5034804;28;20900;-84
2022/08/03 04:32:22;;;;;;;22.60;21.00;;;;;;;;;;5034811;28;20933;-84
2022/08/03 04:34:50;;;;;;;22.73;21.43;;;;;;;;;;5034632;28;20435;-84
2022/08/03 04:37:23;;;;;;;24.17;22.77;;;;;;;;;;5034509;28;20417;-84
2022/08/03 04:39:54;;;;;;;23.17;21.73;;;;;;;;;;5034243;28;20466;-83
2022/08/03 04:42:22;;;;;;;22.70;21.20;;;;;;;;;;5034198;28;20418;-84
2022/08/03 04:44:49;;;;;;;22.37;21.17;;;;;;;;;;5034356;28;20446;-84
2022/08/03 04:47:17;;;;;;;22.00;20.80;;;;;;;;;;5034566;28;20415;-84
2022/08/03 04:49:44;;;;;;;24.57;23.17;;;;;;;;;;5034006;28;20443;-84
2022/08/03 04:52:12;;;;;;;22.50;21.30;;;;;;;;;;5034398;28;20441;-84
2022/08/03 04:54:43;;;;;;;23.57;22.00;;;;;;;;;;5033720;28;20474;-84
2022/08/03 04:57:12;;;;;;;23.53;22.23;;;;;;;;;;5034086;28;20414;-84
2022/08/03 04:59:40;;;;;;;22.87;21.57;;;;;;;;;;5033857;28;20458;-83
2022/08/03 05:02:07;;;;;;;21.80;20.70;;;;;;;;;;5032742;28;20776;-84
2022/08/03 05:04:34;;;;;;;21.77;20.60;;;;;;;;;;5033845;28;20434;-84
2022/08/03 05:07:02;;;;;;;20.90;19.73;;;;;;;;;;5033151;28;20788;-85
2022/08/03 05:09:29;;;;;;;22.60;21.23;;;;;;;;;;5033844;28;20893;-84
2022/08/03 05:11:57;;;;;;;21.67;20.57;;;;;;;;;;5032674;28;20428;-83
2022/08/03 05:14:26;;;;;;;22.73;20.90;;;;;;;;;;5033826;28;20408;-84
2022/08/03 05:16:53;;;;;;;21.00;19.73;;;;;;;;;;5033959;28;20478;-85
2022/08/03 05:19:21;;;;;;;22.07;20.60;;;;;;;;;;5033672;28;20454;-84
2022/08/03 05:21:48;;;;;;;22.23;20.80;;;;;;;;;;5033932;28;20982;-85
2022/08/03 05:24:15;;;;;;;21.50;20.37;;;;;;;;;;5033406;28;20450;-84
2022/08/03 05:26:43;;;;;;;21.10;19.80;;;;;;;;;;5033521;28;20476;-85
2022/08/03 05:29:10;;;;;;;21.10;19.80;;;;;;;;;;5033703;28;20797;-84
2022/08/03 05:31:39;;;;;;;20.23;19.13;;;;;;;;;;5033777;28;20442;-84
2022/08/03 05:34:06;;;;;;;20.17;19.03;;;;;;;;;;5033745;28;20413;-84
2022/08/03 05:36:34;;;;;;;21.57;20.27;;;;;;;;;;5033967;28;20417;-85
2022/08/03 05:39:01;;;;;;;22.03;20.47;;;;;;;;;;5033403;28;20968;-83
2022/08/03 05:41:29;;;;;;;23.70;22.07;;;;;;;;;;5033565;28;20463;-84
2022/08/03 05:43:56;;;;;;;21.00;19.73;;;;;;;;;;5033310;28;20438;-84
2022/08/03 05:46:24;;;;;;;20.97;19.87;;;;;;;;;;5033156;28;20969;-84
2022/08/03 05:48:53;;;;;;;21.50;20.40;;;;;;;;;;5033360;28;20459;-83
2022/08/03 05:51:20;;;;;;;21.10;19.70;;;;;;;;;;5031878;28;20427;-85
2022/08/03 05:53:47;;;;;;;21.17;19.87;;;;;;;;;;5033137;28;20440;-85
2022/08/03 05:56:15;;;;;;;20.77;19.67;;;;;;;;;;5031916;28;20827;-85
2022/08/03 05:58:43;;;;;;;22.27;21.00;;;;;;;;;;5033508;28;20434;-84
2022/08/03 06:01:10;;;;;;;21.37;20.17;;;;;;;;;;5033046;28;20489;-83
2022/08/03 06:03:38;;;;;;;21.00;19.90;;;;;;;;;;5033104;28;20437;-84
2022/08/03 06:06:07;;;;;;;21.30;19.83;;;;;;;;;;5033240;28;20425;-84
2022/08/03 06:08:34;;;;;;;20.50;19.30;;;;;;;;;;5033185;28;20488;-85
2022/08/03 06:11:02;;;;;;;22.17;20.87;;;;;;;;;;5033316;28;20768;-85
2022/08/03 06:13:29;;;;;;;21.20;20.00;;;;;;;;;;5032085;28;20410;-84
2022/08/03 06:15:57;;;;;;;22.40;21.00;;;;;;;;;;5033022;28;20446;-84
2022/08/03 06:18:24;;;;;;;20.87;19.77;;;;;;;;;;5032753;28;20496;-85
2022/08/03 06:20:52;;;;;;;20.53;19.40;;;;;;;;;;5036806;28;20463;-84
2022/08/03 06:23:21;;;;;;;21.23;19.90;;;;;;;;;;5036725;28;20840;-82
2022/08/03 06:25:48;;;;;;;21.70;20.60;;;;;;;;;;5036668;28;20522;-84
2022/08/03 06:28:17;;;;;;;21.33;20.03;;;;;;;;;;5037286;28;20429;-84
2022/08/03 06:30:44;;;;;;;21.93;20.70;;;;;;;;;;5036812;28;20756;-84
2022/08/03 06:33:12;;;;;;;21.23;19.90;;;;;;;;;;5036936;28;20421;-83
2022/08/03 06:35:39;;;;;;;20.30;19.20;;;;;;;;;;5036539;28;20916;-84
2022/08/03 06:38:07;;;;;;;20.40;19.30;;;;;;;;;;5037022;28;20482;-84
2022/08/03 06:40:38;;;;;;;20.67;19.37;;;;;;;;;;5036521;28;20612;-84
2022/08/03 06:43:07;;;;;;;21.07;19.80;;;;;;;;;;5036377;28;20450;-83
2022/08/03 06:45:34;;;;;;;20.50;19.30;;;;;;;;;;5036463;28;20839;-84
2022/08/03 06:48:02;;;;;;;21.73;20.23;;;;;;;;;;5036570;28;20911;-84
2022/08/03 06:50:30;;;;;;;20.80;19.60;;;;;;;;;;5036680;28;20436;-85
2022/08/03 06:52:57;;;;;;;21.50;20.30;;;;;;;;;;5036772;28;20457;-85
2022/08/03 06:55:24;;;;;;;21.07;19.83;;;;;;;;;;5036447;28;20415;-84
2022/08/03 06:57:53;;;;;;;21.50;20.27;;;;;;;;;;5036238;28;20449;-85
2022/08/03 07:00:21;;;;;;;20.73;19.63;;;;;;;;;;5035270;28;20518;-84
2022/08/03 07:02:48;;;;;;;21.20;20.00;;;;;;;;;;5036649;28;20777;-84
2022/08/03 07:05:16;;;;;;;21.47;20.27;;;;;;;;;;5036370;28;20446;-85
2022/08/03 07:07:43;;;;;;;21.03;19.73;;;;;;;;;;5036086;28;20433;-83
2022/08/03 07:10:11;;;;;;;21.43;20.27;;;;;;;;;;5036317;28;20417;-85
2022/08/03 07:12:39;;;;;;;20.43;19.23;;;;;;;;;;5036302;28;20746;-84
2022/08/03 07:15:09;;;;;;;21.43;20.17;;;;;;;;;;5036230;28;20498;-85
2022/08/03 07:17:36;;;;;;;20.13;19.03;;;;;;;;;;5036160;28;20437;-85
2022/08/03 07:20:05;;;;;;;20.67;19.50;;;;;;;;;;5036286;28;20491;-85
2022/08/03 07:22:33;;;;;;;21.40;20.10;;;;;;;;;;5035683;28;20811;-85
2022/08/03 07:25:00;;;;;;;20.97;19.83;;;;;;;;;;5035872;28;20437;-85
2022/08/03 07:27:29;;;;;;;21.87;20.43;;;;;;;;;;5034468;28;20497;-85
2022/08/03 07:29:56;;;;;;;21.47;20.17;;;;;;;;;;5034907;28;20442;-84
2022/08/03 07:32:25;;;;;;;20.63;19.23;;;;;;;;;;5035878;28;20417;-85
2022/08/03 07:34:53;;;;;;;20.50;19.37;;;;;;;;;;5035888;28;20406;-85
2022/08/03 07:37:20;;;;;;;21.33;20.03;;;;;;;;;;5035835;28;20801;-85
2022/08/03 07:39:48;;;;;;;21.73;20.23;;;;;;;;;;5035707;28;20447;-85
2022/08/03 07:42:15;;;;;;;21.50;20.30;;;;;;;;;;5035736;28;20425;-85
2022/08/03 07:44:42;;;;;;;21.33;19.97;;;;;;;;;;5035824;28;20934;-85
2022/08/03 07:47:10;;;;;;;19.80;18.60;;;;;;;;;;5035647;28;20939;-84
2022/08/03 07:49:41;;;;;;;21.83;20.43;;;;;;;;;;5034497;28;20426;-85
2022/08/03 07:54:53;;;;;;;19.83;18.73;;;;;;;;;;5035335;28;20401;-85
2022/08/03 07:57:21;;;;;;;20.93;19.57;;;;;;;;;;5035622;28;20458;-85
2022/08/03 07:59:48;;;;;;;20.53;19.43;;;;;;;;;;5034359;28;20462;-84
2022/08/03 08:02:15;;;;;;;22.17;20.67;;;;;;;;;;5035234;28;20502;-85
2022/08/03 08:04:44;;;;;;;21.13;19.73;;;;;;;;;;5035472;28;20867;-82
2022/08/03 08:07:12;;;;;;;21.47;19.97;;;;;;;;;;5035378;28;20490;-81
2022/08/03 08:09:39;;;;;;;20.63;19.40;;;;;;;;;;5029410;28;20449;-94
2022/08/03 08:12:07;;;;;;;21.27;19.87;;;;;;;;;;5023631;28;20513;-87
2022/08/03 08:14:35;;;;;;;21.40;19.90;;;;;;;;;;5035806;28;20411;-89
2022/08/03 08:17:02;;;;;;;20.80;19.40;;;;;;;;;;5035921;28;20439;-86
2022/08/03 08:19:30;;;;;;;20.77;19.60;;;;;;;;;;5034437;28;20530;-91
2022/08/03 08:21:59;;;;;;;21.13;19.80;;;;;;;;;;5035421;28;20475;-86
2022/08/03 08:24:29;;;;;;;20.70;19.40;;;;;;;;;;5035091;28;20451;-85
2022/08/03 08:26:56;;;;;;;20.80;19.70;;;;;;;;;;5034344;28;20490;-87
2022/08/03 08:29:24;;;;;;;21.93;20.37;;;;;;;;;;5035124;28;20488;-85
2022/08/03 08:31:51;;;;;;;21.00;19.70;;;;;;;;;;5034876;28;20821;-85
2022/08/03 08:34:18;;;;;;;21.97;20.37;;;;;;;;;;5034493;28;20447;-84
2022/08/03 08:36:46;;;;;;;21.57;20.07;;;;;;;;;;5034903;28;20907;-84
2022/08/03 08:39:14;;;;;;;21.10;19.80;;;;;;;;;;5034510;28;20936;-84
2022/08/03 08:41:42;;;;;;;22.70;20.73;;;;;;;;;;5034345;28;20483;-86
2022/08/03 08:44:09;;;;;;;22.90;21.47;;;;;;;;;;5034558;28;20795;-85
2022/08/03 08:46:37;;;;;;;22.90;21.60;;;;;;;;;;5034721;28;20419;-85
2022/08/03 08:49:07;;;;;;;22.30;20.80;;;;;;;;;;5034886;28;20773;-85
2022/08/03 08:51:37;;;;;;;21.40;20.00;;;;;;;;;;5034170;28;20429;-85
2022/08/03 08:54:06;;;;;;;23.97;22.17;;;;;;;;;;5034539;28;20493;-85
2022/08/03 08:56:35;;;;;;;23.50;21.90;;;;;;;;;;5034018;28;20778;-85
2022/08/03 08:59:03;;;;;;;21.03;19.83;;;;;;;;;;5033342;28;20426;-85
2022/08/03 09:01:30;;;;;;;24.73;22.67;;;;;;;;;;5034339;28;20502;-85
2022/08/03 09:03:57;;;;;;;32.73;29.20;;;;;;;;;;5034525;28;20917;-86
2022/08/03 09:06:25;;;;;;;22.30;20.73;;;;;;;;;;5034464;28;20448;-84
2022/08/03 09:08:57;;;;;;;21.67;20.20;;;;;;;;;;5033940;28;20440;-83
2022/08/03 09:11:25;;;;;;;22.60;21.10;;;;;;;;;;5034027;28;20426;-85
2022/08/03 09:13:53;;;;;;;22.90;21.37;;;;;;;;;;5034113;28;20843;-84
2022/08/03 09:16:22;;;;;;;23.03;21.60;;;;;;;;;;5033161;28;20445;-83
2022/08/03 09:18:50;;;;;;;22.80;21.40;;;;;;;;;;5033690;28;20450;-84
2022/08/03 09:21:18;;;;;;;22.70;21.30;;;;;;;;;;5033770;28;20520;-85
2022/08/03 09:23:46;;;;;;;21.93;20.40;;;;;;;;;;5033597;28;20906;-84
2022/08/03 09:26:17;;;;;;;22.10;20.80;;;;;;;;;;5033589;28;20484;-85
2022/08/03 09:28:44;;;;;;;22.67;21.20;;;;;;;;;;5034049;28;20448;-85
2022/08/03 09:31:13;;;;;;;22.87;21.37;;;;;;;;;;5033672;28;20463;-85
2022/08/03 09:33:47;;;;;;;22.73;20.70;;;;;;;;;;5032963;28;20461;-85
2022/08/03 09:36:29;;;;;;;22.80;21.10;;;;;;;;;;5033954;28;20464;-86
2022/08/03 09:39:04;;;;;;;21.57;20.17;;;;;;;;;;5034001;28;20470;-87
2022/08/03 09:41:32;;;;;;;23.43;21.77;;;;;;;;;;5033994;28;20458;-88
2022/08/03 09:44:00;;;;;;;23.20;21.30;;;;;;;;;;5034147;28;20416;-86
2022/08/03 09:46:30;;;;;;;22.63;21.13;;;;;;;;;;5033719;28;20426;-85
2022/08/03 09:49:12;;;;;;;23.20;21.50;;;;;;;;;;5034129;28;20493;-86
2022/08/03 09:51:40;;;;;;;23.80;22.00;;;;;;;;;;5030655;28;20519;-87
2022/08/03 09:54:07;;;;;;;23.50;21.77;;;;;;;;;;5033248;28;20442;-86
2022/08/03 09:56:38;;;;;;;22.27;20.90;;;;;;;;;;5033816;28;20445;-86
2022/08/03 09:59:06;;;;;;;23.20;21.70;;;;;;;;;;5032900;28;21082;-87
2022/08/03 10:01:37;;;;;;;23.10;21.67;;;;;;;;;;5032662;28;20474;-86
2022/08/03 10:04:05;;;;;;;22.50;21.00;;;;;;;;;;5033858;28;21215;-87
2022/08/03 10:06:33;;;;;;;23.30;21.90;;;;;;;;;;5034216;28;20403;-87
2022/08/03 10:09:07;;;;;;;23.87;22.37;;;;;;;;;;5034019;28;20406;-87
2022/08/03 10:11:34;;;;;;;22.50;21.10;;;;;;;;;;5033548;28;20931;-87
2022/08/03 10:14:03;;;;;;;32.83;23.27;;;;;;;;;;5032533;28;20518;-86
2022/08/03 10:16:34;;;;;;;23.47;21.90;;;;;;;;;;5033580;28;20414;-87
2022/08/03 10:19:03;;;;;;;23.50;22.10;;;;;;;;;;5033666;28;20491;-87
2022/08/03 10:21:33;;;;;;;23.53;22.13;;;;;;;;;;5033276;28;20928;-86
2022/08/03 10:24:02;;;;;;;24.10;22.60;;;;;;;;;;5032423;28;20418;-85
2022/08/03 10:26:31;;;;;;;23.27;21.80;;;;;;;;;;5033363;28;20455;-87
2022/08/03 10:29:01;;;;;;;23.57;22.10;;;;;;;;;;5033412;28;20484;-86
2022/08/03 10:31:33;;;;;;;23.63;22.20;;;;;;;;;;5033436;28;20424;-87
2022/08/03 10:34:01;;;;;;;24.53;22.93;;;;;;;;;;5033625;28;20469;-88
2022/08/03 10:36:32;;;;;;;22.60;21.30;;;;;;;;;;5032521;28;20428;-87
2022/08/03 10:38:59;;;;;;;22.87;21.50;;;;;;;;;;5033944;28;20447;-88
2022/08/03 10:41:43;;;;;;;22.90;21.50;;;;;;;;;;5033465;28;20834;-88
2022/08/03 10:44:12;;;;;;;23.17;21.50;;;;;;;;;;5033687;28;20449;-87
2022/08/03 10:46:40;;;;;;;22.23;20.73;;;;;;;;;;5033617;28;20951;-88
2022/08/03 10:49:08;;;;;;;22.10;20.80;;;;;;;;;;5033828;28;20461;-88
2022/08/03 10:51:36;;;;;;;22.63;21.30;;;;;;;;;;5034064;28;20431;-88
2022/08/03 10:54:04;;;;;;;23.53;22.13;;;;;;;;;;5032797;28;20416;-88
2022/08/03 10:59:45;;;;;;;23.10;21.80;;;;;;;;;;5033566;28;20421;-88
2022/08/03 11:02:13;;;;;;;23.87;22.47;;;;;;;;;;5033693;28;20816;-88
2022/08/03 11:04:40;;;;;;;23.87;22.43;;;;;;;;;;5033380;28;20435;-88
2022/08/03 11:07:22;;;;;;;23.77;22.27;;;;;;;;;;5037126;28;20465;-88
2022/08/03 11:09:51;;;;;;;24.27;22.80;;;;;;;;;;5037128;28;20436;-88
2022/08/03 11:12:25;;;;;;;23.80;22.27;;;;;;;;;;5036986;28;20452;-89
2022/08/03 11:14:53;;;;;;;24.07;22.50;;;;;;;;;;5037339;28;20457;-88
2022/08/03 11:17:21;;;;;;;22.70;21.40;;;;;;;;;;5037079;28;20435;-88
2022/08/03 11:19:49;;;;;;;22.90;21.40;;;;;;;;;;5036953;28;20804;-88
2022/08/03 11:22:17;;;;;;;23.00;21.63;;;;;;;;;;5036634;28;20487;-88
2022/08/03 11:25:13;;;;;;;23.50;21.97;;;;;;;;;;5035281;28;20446;-88
2022/08/03 11:27:42;;;;;;;23.60;22.17;;;;;;;;;;5036525;28;20481;-88
2022/08/03 11:30:12;;;;;;;23.57;22.17;;;;;;;;;;5036608;28;20465;-89
2022/08/03 11:32:53;;;;;;;24.60;23.00;;;;;;;;;;5036728;28;20812;-88
2022/08/03 11:35:21;;;;;;;23.13;21.67;;;;;;;;;;5036709;28;20499;-89
2022/08/03 11:38:07;;;;;;;23.20;21.90;;;;;;;;;;5036492;28;20415;-88
2022/08/03 11:40:36;;;;;;;23.70;22.00;;;;;;;;;;5036162;28;20915;-88
2022/08/03 11:43:05;;;;;;;24.40;23.00;;;;;;;;;;5036488;28;20525;-88
2022/08/03 11:45:32;;;;;;;25.40;23.90;;;;;;;;;;5036593;28;20440;-88
2022/08/03 11:48:02;;;;;;;23.93;22.20;;;;;;;;;;5036365;28;20456;-88
2022/08/03 11:50:37;;;;;;;24.77;23.37;;;;;;;;;;5036096;28;20439;-91
2022/08/03 11:53:06;;;;;;;24.47;22.87;;;;;;;;;;5036291;28;20497;-88
2022/08/03 11:55:33;;;;;;;24.77;23.37;;;;;;;;;;5035611;28;20412;-88
2022/08/03 11:58:01;;;;;;;25.10;23.50;;;;;;;;;;5036075;28;20413;-89
2022/08/03 12:00:32;;;;;;;25.40;23.90;;;;;;;;;;5036248;28;20854;-88
2022/08/03 12:03:01;;;;;;;24.30;22.87;;;;;;;;;;5034812;28;20844;-88
2022/08/03 12:05:43;;;;;;;25.30;23.80;;;;;;;;;;5035822;28;20480;-84
2022/08/03 12:08:12;;;;;;;26.23;24.60;;;;;;;;;;5033450;28;20953;-85
2022/08/03 12:10:40;;;;;;;26.00;24.43;;;;;;;;;;5035531;28;20420;-92
2022/08/03 12:13:08;;;;;;;26.43;24.93;;;;;;;;;;5036217;28;20410;-91
2022/08/03 12:15:38;;;;;;;25.37;23.50;;;;;;;;;;5035634;28;20508;-87
2022/08/03 12:18:13;;;;;;;24.60;23.17;;;;;;;;;;5035785;28;20441;-89
2022/08/03 12:20:41;;;;;;;24.77;23.27;;;;;;;;;;5035563;28;20416;-88
2022/08/03 12:23:09;;;;;;;24.07;22.77;;;;;;;;;;5035540;28;20559;-90
2022/08/03 12:25:37;;;;;;;24.90;23.40;;;;;;;;;;5035234;28;20468;-92
2022/08/03 12:28:09;;;;;;;23.80;22.30;;;;;;;;;;4996068;28;20439;-89
2022/08/03 12:30:38;;;;;;;24.53;23.03;;;;;;;;;;4996140;28;20896;-94
2022/08/03 12:33:22;;;;;;;23.53;22.23;;;;;;;;;;4997796;28;20414;-95
2022/08/03 12:35:51;;;;;;;22.53;21.33;;;;;;;;;;4996627;28;20507;-90
2022/08/03 12:38:23;;;;;;;23.67;21.97;;;;;;;;;;4996537;28;20415;-92
2022/08/03 12:40:57;;;;;;;25.10;23.37;;;;;;;;;;4996701;28;20836;-92
2022/08/03 12:43:25;;;;;;;24.20;22.80;;;;;;;;;;4995514;28;20497;-89
2022/08/03 12:46:07;;;;;;;24.50;23.10;;;;;;;;;;4995312;28;20434;-89
2022/08/03 12:48:34;;;;;;;25.93;23.20;;;;;;;;;;4996079;28;20433;-84
2022/08/03 12:51:09;;;;;;;23.40;22.00;;;;;;;;;;4996385;28;20849;-86
2022/08/03 12:53:36;;;;;;;24.27;22.67;;;;;;;;;;4995215;28;20842;-86
2022/08/03 12:56:04;;;;;;;24.40;22.40;;;;;;;;;;4994943;28;20523;-87
2022/08/03 12:58:32;;;;;;;25.47;23.73;;;;;;;;;;4995937;28;20839;-87
2022/08/03 13:01:01;;;;;;;23.87;22.37;;;;;;;;;;4995160;28;20466;-86
2022/08/03 13:03:28;;;;;;;24.33;22.73;;;;;;;;;;4995266;28;20462;-87
2022/08/03 13:05:57;;;;;;;24.17;22.67;;;;;;;;;;4995343;28;20438;-87
2022/08/03 13:08:25;;;;;;;23.77;22.40;;;;;;;;;;4995037;28;20775;-87
2022/08/03 13:10:52;;;;;;;25.17;23.53;;;;;;;;;;4995061;28;20461;-88
2022/08/03 13:13:38;;;;;;;23.50;22.20;;;;;;;;;;4995095;28;20803;-88
2022/08/03 13:16:18;;;;;;;24.80;23.00;;;;;;;;;;4994641;28;20445;-85
2022/08/03 13:18:51;;;;;;;26.23;24.33;;;;;;;;;;4994182;28;20484;-85
2022/08/03 13:21:18;;;;;;;23.20;21.70;;;;;;;;;;4993494;28;20437;-87
2022/08/03 13:23:50;;;;;;;24.30;22.70;;;;;;;;;;4994081;28;20900;-84
2022/08/03 13:26:17;;;;;;;24.80;22.90;;;;;;;;;;5004806;28;20458;-86
2022/08/03 13:28:45;;;;;;;24.70;23.00;;;;;;;;;;5033174;28;20448;-86
2022/08/03 13:31:13;;;;;;;24.27;22.87;;;;;;;;;;5033595;28;20458;-86
2022/08/03 13:33:41;;;;;;;23.53;22.00;;;;;;;;;;5034524;28;20435;-87
2022/08/03 13:36:09;;;;;;;24.90;23.33;;;;;;;;;;5034374;28;20911;-87
2022/08/03 13:38:36;;;;;;;25.17;23.47;;;;;;;;;;5034273;28;20838;-88
2022/08/03 13:41:03;;;;;;;24.90;22.97;;;;;;;;;;5034096;28;20880;-88
2022/08/03 13:43:31;;;;;;;25.77;24.17;;;;;;;;;;5034544;28;20463;-88
2022/08/03 13:45:58;;;;;;;25.27;23.67;;;;;;;;;;5034359;28;20521;-88
2022/08/03 13:48:27;;;;;;;25.10;23.60;;;;;;;;;;5034261;28;20417;-87
2022/08/03 13:50:54;;;;;;;25.77;24.27;;;;;;;;;;5034220;28;20849;-88
2022/08/03 13:53:22;;;;;;;25.33;23.83;;;;;;;;;;5034473;28;20416;-87
2022/08/03 13:55:49;;;;;;;25.33;23.60;;;;;;;;;;5034123;28;20434;-88
2022/08/03 13:58:16;;;;;;;25.63;24.00;;;;;;;;;;5034146;28;20431;-87
2022/08/03 14:00:44;;;;;;;25.50;23.90;;;;;;;;;;5033883;28;20470;-82
2022/08/03 14:03:11;;;;;;;24.60;23.20;;;;;;;;;;5033081;28;20461;-84
2022/08/03 14:05:40;;;;;;;25.00;23.60;;;;;;;;;;5033054;28;20511;-84
2022/08/03 14:08:08;;;;;;;24.13;22.53;;;;;;;;;;5033215;28;20876;-85
2022/08/03 14:10:36;;;;;;;24.67;22.70;;;;;;;;;;5033037;28;20447;-85
2022/08/03 14:13:03;;;;;;;24.27;22.77;;;;;;;;;;5033193;28;20520;-85
2022/08/03 14:15:31;;;;;;;24.70;23.03;;;;;;;;;;5033273;28;20451;-84
2022/08/03 14:17:59;;;;;;;25.27;23.70;;;;;;;;;;5033212;28;20927;-84
2022/08/03 14:20:26;;;;;;;24.93;23.43;;;;;;;;;;5033313;28;20416;-84
2022/08/03 14:22:55;;;;;;;25.80;24.13;;;;;;;;;;5033068;28;20483;-85
2022/08/03 14:25:23;;;;;;;25.70;23.90;;;;;;;;;;5032815;28;20429;-85
2022/08/03 14:27:50;;;;;;;24.67;23.17;;;;;;;;;;5032396;28;21034;-85
2022/08/03 14:30:17;;;;;;;24.70;23.00;;;;;;;;;;5032751;28;20526;-85
2022/08/03 14:32:45;;;;;;;24.30;22.87;;;;;;;;;;5032697;28;20416;-84
2022/08/03 14:35:13;;;;;;;24.30;22.90;;;;;;;;;;5032849;28;20419;-85
2022/08/03 14:37:40;;;;;;;24.80;23.40;;;;;;;;;;5032789;28;20421;-84
2022/08/03 14:40:09;;;;;;;24.33;22.87;;;;;;;;;;5035016;28;20432;-84